createdAt,value
2023-11-18T00:02:01.196Z,89.00
2023-11-18T00:04:28.015Z,84.22
2023-11-18T00:06:55.756Z,95.88
2023-11-18T00:09:23.863Z,115.82
2023-11-18T00:11:50.599Z,134.87
2023-11-18T00:14:19.118Z,42.35
2023-11-18T00:16:45.945Z,88.15
2023-11-18T00:19:12.767Z,42.05
2023-11-18T00:21:39.514Z,59.13
2023-11-18T00:24:06.749Z,120.13
2023-11-18T00:26:33.571Z,219.30
2023-11-18T00:29:01.738Z,112.53
2023-11-18T00:31:28.874Z,64.18
2023-11-18T00:33:55.862Z,22.30
2023-11-18T00:36:22.650Z,27.33
2023-11-18T00:38:50.386Z,74.60
2023-11-18T00:41:18.537Z,39.15
2023-11-18T00:43:45.520Z,45.60
2023-11-18T00:46:12.360Z,25.65
2023-11-18T00:48:39.272Z,45.73
2023-11-18T00:51:07.345Z,16.92
2023-11-18T00:53:34.113Z,18.83
2023-11-18T00:56:02.035Z,48.15
2023-11-18T00:58:30.157Z,23.17
2023-11-18T01:00:57.009Z,36.17
2023-11-18T01:03:23.860Z,16.05
2023-11-18T01:05:50.735Z,44.83
2023-11-18T01:08:18.393Z,75.45
2023-11-18T01:10:45.268Z,61.00
2023-11-18T01:13:12.104Z,16.77
2023-11-18T01:15:38.851Z,34.85
2023-11-18T01:18:07.493Z,24.05
2023-11-18T01:20:34.430Z,58.13
2023-11-18T01:23:01.570Z,55.45
2023-11-18T01:25:28.362Z,35.90
2023-11-18T01:27:55.074Z,50.92
2023-11-18T01:30:21.789Z,48.75
2023-11-18T01:32:48.671Z,112.72
2023-11-18T01:35:15.545Z,67.50
2023-11-18T01:37:42.405Z,64.23
2023-11-18T01:40:09.622Z,41.05
2023-11-18T01:42:36.438Z,25.35
2023-11-18T01:45:04.861Z,57.25
2023-11-18T01:47:34.992Z,30.63
2023-11-18T01:50:03.576Z,36.40
2023-11-18T01:52:31.672Z,54.35
2023-11-18T01:55:00.564Z,44.47
2023-11-18T01:57:28.263Z,18.80
2023-11-18T01:59:55.671Z,13.48
2023-11-18T02:02:22.771Z,11.77
2023-11-18T02:04:50.429Z,8.65
2023-11-18T02:07:17.456Z,10.68
2023-11-18T02:09:44.368Z,20.15
2023-11-18T02:12:28.269Z,28.45
2023-11-18T02:14:58.962Z,18.00
2023-11-18T02:17:26.603Z,14.20
2023-11-18T02:19:55.001Z,15.80
2023-11-18T02:22:22.979Z,13.93
2023-11-18T02:24:50.142Z,18.75
2023-11-18T02:27:17.766Z,38.27
2023-11-18T02:29:47.103Z,41.38
2023-11-18T02:32:27.915Z,13.82
2023-11-18T02:35:11.378Z,25.08
2023-11-18T02:37:46.242Z,28.25
2023-11-18T02:40:19.534Z,43.83
2023-11-18T02:42:48.873Z,39.63
2023-11-18T02:45:19.266Z,39.50
2023-11-18T02:47:46.545Z,35.92
2023-11-18T02:50:14.713Z,31.55
2023-11-18T02:52:41.806Z,58.03
2023-11-18T02:55:09.800Z,73.88
2023-11-18T02:57:37.938Z,37.38
2023-11-18T03:00:18.609Z,60.88
2023-11-18T03:02:48.424Z,33.95
2023-11-18T03:05:16.315Z,32.37
2023-11-18T03:07:45.692Z,40.67
2023-11-18T03:10:12.968Z,17.48
2023-11-18T03:12:39.798Z,47.85
2023-11-18T03:15:10.241Z,66.20
2023-11-18T03:17:36.937Z,39.63
2023-11-18T03:20:03.984Z,67.75
2023-11-18T03:22:30.794Z,44.13
2023-11-18T03:24:57.511Z,45.15
2023-11-18T03:27:24.245Z,143.50
2023-11-18T03:29:53.695Z,48.20
2023-11-18T03:32:20.640Z,107.95
2023-11-18T03:34:47.350Z,55.95
2023-11-18T03:37:14.060Z,55.17
2023-11-18T03:39:40.706Z,45.00
2023-11-18T03:42:07.661Z,38.33
2023-11-18T03:44:34.526Z,60.67
2023-11-18T03:47:04.106Z,57.22
2023-11-18T03:49:30.916Z,48.28
2023-11-18T03:51:57.594Z,62.53
2023-11-18T03:54:24.370Z,68.50
2023-11-18T03:56:51.093Z,29.77
2023-11-18T03:59:17.747Z,43.58
2023-11-18T04:01:44.426Z,24.77
2023-11-18T04:04:11.312Z,21.80
2023-11-18T04:06:38.063Z,32.37
2023-11-18T04:09:06.967Z,28.38
2023-11-18T04:11:33.668Z,62.85
2023-11-18T04:14:00.495Z,26.90
2023-11-18T04:16:27.328Z,21.40
2023-11-18T04:18:54.000Z,30.17
2023-11-18T04:26:41.050Z,61.38
2023-11-18T04:29:07.776Z,45.50
2023-11-18T04:31:35.521Z,131.20
2023-11-18T04:34:02.228Z,46.28
2023-11-18T04:36:30.171Z,64.78
2023-11-18T04:38:56.869Z,76.90
2023-11-18T04:41:24.327Z,40.78
2023-11-18T04:43:51.389Z,59.60
2023-11-18T04:46:18.163Z,148.98
2023-11-18T04:48:45.056Z,83.35
2023-11-18T04:51:13.247Z,27.67
2023-11-18T04:53:40.587Z,17.77
2023-11-18T04:56:11.464Z,77.23
2023-11-18T04:58:41.685Z,58.20
2023-11-18T05:01:09.927Z,48.70
2023-11-18T05:03:37.650Z,60.50
2023-11-18T05:06:05.594Z,45.55
2023-11-18T05:08:34.837Z,25.63
2023-11-18T05:11:01.700Z,95.30
2023-11-18T05:13:28.452Z,43.17
2023-11-18T05:15:55.390Z,78.25
2023-11-18T05:18:22.453Z,53.78
2023-11-18T05:20:49.223Z,48.50
2023-11-18T05:23:15.881Z,102.10
2023-11-18T05:25:47.384Z,169.90
2023-11-18T05:28:14.758Z,44.95
2023-11-18T05:30:44.475Z,38.38
2023-11-18T05:33:16.260Z,41.63
2023-11-18T05:35:49.909Z,28.00
2023-11-18T05:38:22.930Z,37.40
2023-11-18T05:40:57.334Z,33.50
2023-11-18T05:43:31.101Z,44.50
2023-11-18T05:46:22.207Z,15.97
2023-11-18T05:48:50.465Z,29.50
2023-11-18T05:51:30.376Z,47.20
2023-11-18T05:53:57.187Z,68.88
2023-11-18T05:56:24.816Z,63.88
2023-11-18T05:58:54.718Z,107.70
2023-11-18T06:01:22.167Z,100.28
2023-11-18T06:03:48.986Z,38.65
2023-11-18T06:06:21.143Z,19.02
2023-11-18T06:08:50.722Z,71.40
2023-11-18T06:11:18.727Z,34.90
2023-11-18T06:13:52.989Z,14.88
2023-11-18T06:16:22.200Z,17.48
2023-11-18T06:18:51.510Z,39.70
2023-11-18T06:21:20.015Z,26.40
2023-11-18T06:23:48.855Z,90.27
2023-11-18T06:26:17.435Z,49.17
2023-11-18T06:28:50.275Z,83.53
2023-11-18T06:31:17.077Z,49.72
2023-11-18T06:33:48.692Z,113.07
2023-11-18T06:36:15.391Z,42.53
2023-11-18T06:38:42.558Z,58.45
2023-11-18T06:41:12.187Z,75.10
2023-11-18T06:43:55.561Z,84.40
2023-11-18T06:46:35.813Z,49.83
2023-11-18T06:49:07.952Z,35.20
2023-11-18T06:51:37.315Z,48.42
2023-11-18T06:54:12.001Z,39.10
2023-11-18T06:56:46.043Z,82.45
2023-11-18T06:59:15.925Z,119.15
2023-11-18T07:01:47.155Z,67.73
2023-11-18T07:04:15.630Z,133.57
2023-11-18T07:06:44.238Z,38.95
2023-11-18T07:09:15.423Z,110.05
2023-11-18T07:11:42.322Z,23.58
2023-11-18T07:14:10.455Z,29.53
2023-11-18T07:16:40.254Z,97.13
2023-11-18T07:19:07.136Z,61.72
2023-11-18T07:21:34.901Z,103.32
2023-11-18T07:24:03.610Z,87.35
2023-11-18T07:26:30.421Z,31.47
2023-11-18T07:28:57.281Z,56.28
2023-11-18T07:31:24.147Z,49.38
2023-11-18T07:33:51.929Z,43.35
2023-11-18T07:36:20.980Z,14.15
2023-11-18T07:38:48.334Z,16.90
2023-11-18T07:41:30.812Z,27.60
2023-11-18T07:43:59.510Z,13.48
2023-11-18T07:46:26.816Z,59.42
2023-11-18T07:48:54.654Z,31.80
2023-11-18T07:51:25.567Z,35.63
2023-11-18T07:53:52.434Z,26.83
2023-11-18T07:56:19.169Z,14.85
2023-11-18T07:58:49.100Z,12.70
2023-11-18T08:01:18.591Z,18.13
2023-11-18T08:03:45.829Z,17.50
2023-11-18T08:06:13.465Z,20.63
2023-11-18T08:08:40.767Z,16.23
2023-11-18T08:11:07.926Z,22.13
2023-11-18T08:13:34.721Z,29.27
2023-11-18T08:16:02.123Z,14.50
2023-11-18T08:18:30.472Z,18.00
2023-11-18T08:20:58.517Z,14.25
2023-11-18T08:23:26.094Z,14.30
2023-11-18T08:25:52.886Z,15.05
2023-11-18T08:28:19.652Z,12.70
2023-11-18T08:30:49.796Z,12.65
2023-11-18T08:33:16.504Z,12.27
2023-11-18T08:35:43.567Z,14.40
2023-11-18T08:38:13.563Z,16.05
2023-11-18T08:40:41.744Z,13.80
2023-11-18T08:43:09.255Z,13.40
2023-11-18T08:45:37.340Z,12.65
2023-11-18T08:48:09.306Z,12.80
2023-11-18T08:50:37.565Z,13.05
2023-11-18T08:53:10.563Z,12.93
2023-11-18T08:55:41.658Z,12.07
2023-11-18T08:58:19.887Z,15.88
2023-11-18T09:00:55.802Z,15.43
2023-11-18T09:03:36.155Z,13.57
2023-11-18T09:06:06.327Z,13.73
2023-11-18T09:08:39.267Z,12.73
2023-11-18T09:11:08.372Z,13.60
2023-11-18T09:13:36.238Z,11.55
2023-11-18T09:16:09.411Z,11.18
2023-11-18T09:18:43.394Z,12.37
2023-11-18T09:21:16.415Z,11.85
2023-11-18T09:23:45.170Z,12.25
2023-11-18T09:26:12.121Z,12.80
2023-11-18T09:28:39.664Z,11.98
2023-11-18T09:31:11.087Z,13.03
2023-11-18T09:33:40.608Z,12.82
2023-11-18T09:36:09.050Z,15.38
2023-11-18T09:38:37.039Z,17.05
2023-11-18T09:41:08.766Z,12.52
2023-11-18T09:43:48.231Z,10.07
2023-11-18T09:46:24.967Z,12.07
2023-11-18T09:49:16.487Z,10.70
2023-11-18T09:51:48.401Z,9.85
2023-11-18T09:54:37.735Z,10.25
2023-11-18T09:57:32.852Z,10.00
2023-11-18T10:00:22.459Z,9.82
2023-11-18T10:02:52.095Z,11.85
2023-11-18T10:05:24.271Z,12.65
2023-11-18T10:07:52.354Z,13.07
2023-11-18T10:10:21.830Z,14.67
2023-11-18T10:12:59.467Z,11.48
2023-11-18T10:15:28.245Z,12.60
2023-11-18T10:18:01.575Z,13.15
2023-11-18T10:20:41.126Z,14.18
2023-11-18T10:23:12.245Z,12.73
2023-11-18T10:25:49.858Z,14.27
2023-11-18T10:28:39.700Z,15.07
2023-11-18T10:31:10.595Z,15.00
2023-11-18T10:33:39.656Z,15.10
2023-11-18T10:36:13.896Z,12.67
2023-11-18T10:38:50.663Z,13.02
2023-11-18T10:41:20.749Z,15.80
2023-11-18T10:43:49.357Z,15.02
2023-11-18T10:46:17.759Z,15.45
2023-11-18T10:48:48.387Z,13.17
2023-11-18T10:51:21.119Z,13.80
2023-11-18T10:54:00.115Z,12.65
2023-11-18T10:56:28.490Z,13.35
2023-11-18T10:59:08.645Z,14.15
2023-11-18T11:01:44.977Z,16.47
2023-11-18T11:04:13.133Z,13.32
2023-11-18T11:06:47.352Z,15.85
2023-11-18T11:09:18.270Z,14.07
2023-11-18T11:12:16.077Z,13.13
2023-11-18T11:15:05.208Z,15.13
2023-11-18T11:17:37.756Z,12.88
2023-11-18T11:20:18.227Z,13.73
2023-11-18T11:22:57.928Z,14.45
2023-11-18T11:25:47.722Z,11.93
2023-11-18T11:28:24.405Z,12.77
2023-11-18T11:30:53.886Z,12.02
2023-11-18T11:33:23.473Z,11.23
2023-11-18T11:35:58.425Z,24.73
2023-11-18T11:38:27.839Z,12.98
2023-11-18T11:40:56.143Z,15.77
2023-11-18T11:43:22.988Z,13.43
2023-11-18T11:45:53.156Z,12.77
2023-11-18T11:48:27.748Z,11.90
2023-11-18T11:51:21.724Z,11.15
2023-11-18T11:54:05.832Z,12.53
2023-11-18T11:56:41.429Z,10.85
2023-11-18T11:59:12.348Z,11.25
2023-11-18T12:01:40.024Z,10.35
2023-11-18T12:04:11.802Z,11.38
2023-11-18T12:06:43.795Z,9.63
2023-11-18T12:09:11.099Z,10.15
2023-11-18T12:11:43.299Z,11.00
2023-11-18T12:14:36.704Z,9.32
2023-11-18T12:17:11.632Z,9.60
2023-11-18T12:19:49.975Z,9.73
2023-11-18T12:22:34.464Z,10.38
2023-11-18T12:25:07.360Z,10.32
2023-11-18T12:27:40.147Z,9.40
2023-11-18T12:30:16.218Z,8.63
2023-11-18T12:33:10.562Z,9.10
2023-11-18T12:35:40.365Z,10.68
2023-11-18T12:38:47.498Z,9.98
2023-11-18T12:41:41.490Z,9.48
2023-11-18T12:44:38.162Z,10.40
2023-11-18T12:47:16.101Z,12.40
2023-11-18T12:49:43.592Z,11.18
2023-11-18T12:52:13.253Z,13.45
2023-11-18T12:54:44.987Z,10.25
2023-11-18T12:57:15.293Z,10.57
2023-11-18T12:59:43.469Z,10.10
2023-11-18T13:02:19.506Z,9.50
2023-11-18T13:04:50.849Z,12.40
2023-11-18T13:07:19.624Z,12.95
2023-11-18T13:09:47.515Z,10.85
2023-11-18T13:12:21.119Z,14.30
2023-11-18T13:14:48.615Z,11.70
2023-11-18T13:17:17.897Z,13.77
2023-11-18T13:19:45.611Z,10.40
2023-11-18T13:22:14.675Z,9.75
2023-11-18T13:24:46.212Z,11.77
2023-11-18T13:27:17.960Z,9.48
2023-11-18T13:29:54.972Z,9.77
2023-11-18T13:32:27.948Z,11.88
2023-11-18T13:34:56.092Z,10.15
2023-11-18T13:37:24.347Z,12.23
2023-11-18T13:39:55.686Z,12.10
2023-11-18T13:42:30.175Z,12.10
2023-11-18T13:45:10.620Z,11.60
2023-11-18T13:47:37.924Z,11.80
2023-11-18T13:50:11.815Z,12.30
2023-11-18T13:52:40.096Z,13.98
2023-11-18T13:55:08.370Z,12.20
2023-11-18T13:57:35.931Z,13.43
2023-11-18T14:00:07.847Z,11.30
2023-11-18T14:02:37.354Z,11.57
2023-11-18T14:05:06.618Z,15.30
2023-11-18T14:07:39.664Z,14.43
2023-11-18T14:10:09.480Z,12.38
2023-11-18T14:12:36.299Z,13.98
2023-11-18T14:15:04.769Z,12.10
2023-11-18T14:17:31.714Z,11.52
2023-11-18T14:19:59.472Z,11.70
2023-11-18T14:22:26.271Z,10.70
2023-11-18T14:24:53.007Z,13.20
2023-11-18T14:27:19.669Z,10.90
2023-11-18T14:29:47.696Z,11.07
2023-11-18T14:32:15.273Z,10.63
2023-11-18T14:34:43.277Z,12.18
2023-11-18T14:37:10.017Z,13.93
2023-11-18T14:39:37.997Z,10.97
2023-11-18T14:42:05.264Z,10.75
2023-11-18T14:44:31.981Z,12.85
2023-11-18T14:46:59.958Z,12.63
2023-11-18T14:49:26.722Z,10.80
2023-11-18T14:51:53.410Z,9.80
2023-11-18T14:54:20.094Z,10.27
2023-11-18T14:56:50.289Z,12.57
2023-11-18T14:59:17.236Z,13.00
2023-11-18T15:01:45.282Z,19.15
2023-11-18T15:04:13.203Z,73.20
2023-11-18T15:06:40.173Z,81.70
2023-11-18T15:09:11.893Z,28.83
2023-11-18T15:11:38.875Z,23.13
2023-11-18T15:14:05.700Z,31.63
2023-11-18T15:16:32.635Z,37.90
2023-11-18T15:18:59.470Z,23.25
2023-11-18T15:21:26.173Z,21.90
2023-11-18T15:23:52.918Z,32.88
2023-11-18T15:26:19.701Z,24.92
2023-11-18T15:28:46.477Z,15.33
2023-11-18T15:31:13.601Z,28.40
2023-11-18T15:33:40.302Z,23.50
2023-11-18T15:36:08.745Z,20.90
2023-11-18T15:38:36.791Z,23.55
2023-11-18T15:41:03.858Z,49.43
2023-11-18T15:43:30.843Z,21.45
2023-11-18T15:45:59.478Z,23.08
2023-11-18T15:48:30.141Z,30.38
2023-11-18T15:50:59.196Z,15.43
2023-11-18T15:53:28.966Z,17.57
2023-11-18T15:55:55.997Z,13.07
2023-11-18T15:58:27.149Z,26.30
2023-11-18T16:00:54.101Z,19.00
2023-11-18T16:03:21.050Z,14.65
2023-11-18T16:05:47.929Z,13.73
2023-11-18T16:08:14.934Z,19.35
2023-11-18T16:10:41.728Z,17.05
2023-11-18T16:13:08.390Z,15.35
2023-11-18T16:15:35.114Z,14.88
2023-11-18T16:18:02.433Z,18.27
2023-11-18T16:20:34.885Z,26.80
2023-11-18T16:23:06.254Z,39.97
2023-11-18T16:25:36.253Z,35.13
2023-11-18T16:28:04.198Z,30.45
2023-11-18T16:30:32.119Z,37.00
2023-11-18T16:33:02.166Z,27.67
2023-11-18T16:35:30.249Z,22.45
2023-11-18T16:37:57.866Z,24.58
2023-11-18T16:40:25.771Z,23.08
2023-11-18T16:42:57.875Z,19.50
2023-11-18T16:45:25.961Z,20.50
2023-11-18T16:47:55.146Z,22.27
2023-11-18T16:50:24.472Z,21.17
2023-11-18T16:52:52.024Z,20.55
2023-11-18T16:55:19.306Z,19.73
2023-11-18T16:57:47.127Z,19.52
2023-11-18T17:00:20.958Z,18.95
2023-11-18T17:02:55.635Z,18.80
2023-11-18T17:05:26.246Z,22.08
2023-11-18T17:07:55.985Z,18.53
2023-11-18T17:10:24.014Z,23.60
2023-11-18T17:12:52.310Z,21.30
2023-11-18T17:15:19.778Z,20.65
2023-11-18T17:17:48.407Z,18.10
2023-11-18T17:20:16.810Z,18.10
2023-11-18T17:22:44.385Z,19.70
2023-11-18T17:25:17.720Z,19.52
2023-11-18T17:27:45.993Z,20.17
2023-11-18T17:30:17.083Z,22.98
2023-11-18T17:32:45.222Z,18.77
2023-11-18T17:35:16.090Z,20.02
2023-11-18T17:37:47.397Z,24.02
2023-11-18T17:40:15.705Z,21.20
2023-11-18T17:42:44.650Z,23.13
2023-11-18T17:45:13.134Z,19.53
2023-11-18T17:47:43.626Z,17.25
2023-11-18T17:50:13.226Z,17.00
2023-11-18T17:52:42.378Z,15.43
2023-11-18T17:55:09.865Z,17.05
2023-11-18T17:57:37.022Z,16.13
2023-11-18T18:00:09.831Z,16.48
2023-11-18T18:02:37.789Z,13.93
2023-11-18T18:05:05.627Z,14.02
2023-11-18T18:07:32.476Z,18.17
2023-11-18T18:09:59.245Z,13.13
2023-11-18T18:12:28.071Z,13.55
2023-11-18T18:14:55.697Z,25.00
2023-11-18T18:17:22.516Z,16.70
2023-11-18T18:19:49.418Z,21.10
2023-11-18T18:22:16.130Z,19.63
2023-11-18T18:24:43.117Z,18.77
2023-11-18T18:27:09.921Z,21.83
2023-11-18T18:29:36.724Z,19.65
2023-11-18T18:32:03.679Z,16.83
2023-11-18T18:34:31.537Z,23.23
2023-11-18T18:36:59.979Z,18.52
2023-11-18T18:39:26.742Z,12.75
2023-11-18T18:41:53.445Z,13.88
2023-11-18T18:44:20.368Z,14.93
2023-11-18T18:46:47.113Z,18.47
2023-11-18T18:49:16.531Z,14.05
2023-11-18T18:51:43.229Z,13.80
2023-11-18T18:54:10.368Z,16.38
2023-11-18T18:56:39.047Z,12.93
2023-11-18T18:59:11.858Z,12.80
2023-11-18T19:01:45.804Z,13.05
2023-11-18T19:04:15.173Z,14.95
2023-11-18T19:06:41.918Z,16.17
2023-11-18T19:09:12.610Z,12.48
2023-11-18T19:11:39.640Z,14.10
2023-11-18T19:14:06.398Z,10.60
2023-11-18T19:16:33.355Z,14.40
2023-11-18T19:19:00.006Z,11.45
2023-11-18T19:21:26.806Z,11.68
2023-11-18T19:23:53.519Z,11.37
2023-11-18T19:26:23.294Z,12.30
2023-11-18T19:28:50.212Z,12.10
2023-11-18T19:31:17.268Z,13.88
2023-11-18T19:33:44.009Z,12.30
2023-11-18T19:36:11.608Z,13.37
2023-11-18T19:38:39.513Z,11.73
2023-11-18T19:41:06.941Z,11.07
2023-11-18T19:43:34.488Z,11.27
2023-11-18T19:46:01.584Z,11.85
2023-11-18T19:48:31.811Z,12.73
2023-11-18T19:50:58.665Z,11.00
2023-11-18T19:53:25.903Z,10.75
2023-11-18T19:55:53.748Z,9.88
2023-11-18T19:58:23.012Z,10.95
2023-11-18T20:00:51.111Z,11.07
2023-11-18T20:03:17.888Z,12.40
2023-11-18T20:05:44.799Z,13.88
2023-11-18T20:08:11.548Z,14.05
2023-11-18T20:10:38.374Z,13.65
2023-11-18T20:13:06.152Z,13.43
2023-11-18T20:15:33.938Z,11.98
2023-11-18T20:18:00.862Z,12.93
2023-11-18T20:20:28.380Z,13.27
2023-11-18T20:22:55.824Z,12.70
2023-11-18T20:25:23.461Z,11.73
2023-11-18T20:27:50.127Z,14.25
2023-11-18T20:30:16.908Z,12.00
2023-11-18T20:32:45.230Z,13.32
2023-11-18T20:35:12.236Z,13.02
2023-11-18T20:37:39.856Z,13.43
2023-11-18T20:40:12.350Z,12.98
2023-11-18T20:42:41.617Z,14.43
2023-11-18T20:45:09.647Z,15.75
2023-11-18T20:47:39.306Z,13.38
2023-11-18T20:50:07.588Z,13.57
2023-11-18T20:52:34.302Z,13.10
2023-11-18T20:55:01.195Z,12.48
2023-11-18T20:57:27.964Z,13.77
2023-11-18T20:59:54.781Z,14.73
2023-11-18T21:02:21.590Z,14.03
2023-11-18T21:04:48.640Z,13.10
2023-11-18T21:07:15.465Z,14.23
2023-11-18T21:09:43.056Z,13.13
2023-11-18T21:12:18.022Z,14.60
2023-11-18T21:14:51.879Z,14.67
2023-11-18T21:17:18.927Z,13.57
2023-11-18T21:19:45.684Z,13.32
2023-11-18T21:22:14.243Z,13.88
2023-11-18T21:24:41.037Z,13.10
2023-11-18T21:27:08.312Z,15.40
2023-11-18T21:29:35.168Z,13.23
2023-11-18T21:32:03.063Z,13.65
2023-11-18T21:34:29.896Z,13.85
2023-11-18T21:36:56.668Z,13.93
2023-11-18T21:39:24.032Z,14.37
2023-11-18T21:41:50.904Z,14.00
2023-11-18T21:44:19.429Z,14.65
2023-11-18T21:46:48.756Z,12.35
2023-11-18T21:49:15.448Z,13.73
2023-11-18T21:51:42.305Z,13.37
2023-11-18T21:54:09.158Z,13.50
2023-11-18T21:56:36.162Z,13.90
2023-11-18T21:59:04.588Z,13.52
2023-11-18T22:01:32.001Z,14.55
2023-11-18T22:03:58.905Z,11.67
2023-11-18T22:06:25.718Z,14.05
2023-11-18T22:08:52.822Z,14.63
2023-11-18T22:11:20.553Z,11.52
2023-11-18T22:13:50.230Z,11.98
2023-11-18T22:16:17.007Z,13.03
2023-11-18T22:18:44.867Z,14.10
2023-11-18T22:21:14.760Z,16.38
2023-11-18T22:23:41.517Z,18.38
2023-11-18T22:26:08.772Z,15.85
2023-11-18T22:28:39.131Z,14.23
2023-11-18T22:31:06.112Z,14.50
2023-11-18T22:33:35.935Z,14.45
2023-11-18T22:36:05.534Z,13.35
2023-11-18T22:38:32.280Z,12.48
2023-11-18T22:40:59.954Z,11.67
2023-11-18T22:43:26.725Z,12.30
2023-11-18T22:45:53.412Z,13.35
2023-11-18T22:48:21.054Z,12.95
2023-11-18T22:50:48.078Z,71.10
2023-11-18T22:53:18.136Z,19.80
2023-11-18T22:55:45.661Z,14.55
2023-11-18T22:58:13.896Z,12.20
2023-11-18T23:00:43.395Z,16.67
2023-11-18T23:03:10.478Z,15.73
2023-11-18T23:05:40.502Z,14.20
2023-11-18T23:08:10.736Z,12.30
2023-11-18T23:10:40.785Z,12.70
2023-11-18T23:13:08.307Z,13.73
2023-11-18T23:15:38.117Z,14.60
2023-11-18T23:18:05.838Z,14.47
2023-11-18T23:20:33.519Z,14.93
2023-11-18T23:23:04.003Z,24.38
2023-11-18T23:25:30.742Z,18.63
2023-11-18T23:28:02.802Z,17.35
2023-11-18T23:30:30.814Z,15.03
2023-11-18T23:32:57.913Z,17.67
2023-11-18T23:35:24.692Z,15.30
2023-11-18T23:37:52.633Z,11.68
2023-11-18T23:40:20.860Z,12.98
2023-11-18T23:42:48.963Z,9.20
2023-11-18T23:45:19.808Z,10.15
2023-11-18T23:47:51.440Z,8.63
2023-11-18T23:50:18.940Z,10.13
2023-11-18T23:52:45.642Z,11.00
2023-11-18T23:55:15.570Z,11.90
2023-11-18T23:57:43.017Z,13.52
